Time;durP1;ratioP1;P1;durP2;ratioP2;P2;SDS_P1;SDS_P2;PMS_P1;PMS_P2;Temp;Humidity;BMP_temperature;BMP_pressure;BME280_temperature;BME280_humidity;BME280_pressure;Samples;Min_cycle;Max_cycle;Signal;HPM_P1;HPM_P2
2021/04/20 00:00:49;;;;;;;18.77;13.48;;;7.80;93.20;;;;;;5076783;28;20363;-77
2021/04/20 00:03:15;;;;;;;20.48;14.73;;;7.80;93.10;;;;;;5095343;28;20482;-77
2021/04/20 00:05:41;;;;;;;20.25;14.20;;;7.80;93.30;;;;;;5094689;28;20055;-77
2021/04/20 00:08:07;;;;;;;16.70;12.93;;;7.70;93.20;;;;;;5095040;28;20104;-77
2021/04/20 00:10:33;;;;;;;25.38;16.52;;;7.70;93.20;;;;;;5094848;28;20040;-77
2021/04/20 00:13:00;;;;;;;19.45;13.70;;;7.70;93.60;;;;;;5094702;28;20449;-77
2021/04/20 00:15:28;;;;;;;23.50;15.95;;;7.70;93.30;;;;;;5094679;28;20459;-77
2021/04/20 00:17:56;;;;;;;21.77;15.57;;;7.70;93.60;;;;;;5094736;28;20028;-77
2021/04/20 00:20:22;;;;;;;22.33;15.40;;;7.60;93.60;;;;;;5076702;28;20031;-77
2021/04/20 00:22:49;;;;;;;24.33;15.68;;;7.50;93.80;;;;;;5094489;28;20434;-77
2021/04/20 00:25:15;;;;;;;22.63;16.02;;;7.50;93.80;;;;;;5076367;28;20089;-77
2021/04/20 00:27:41;;;;;;;23.33;15.57;;;7.50;94.10;;;;;;5076174;28;20073;-77
2021/04/20 00:30:08;;;;;;;20.90;14.82;;;7.40;94.10;;;;;;5094269;28;20417;-77
2021/04/20 00:32:34;;;;;;;19.63;14.50;;;7.40;94.00;;;;;;5075470;28;20081;-77
2021/04/20 00:35:01;;;;;;;21.58;15.48;;;7.40;94.00;;;;;;5076234;28;20086;-77
2021/04/20 00:37:27;;;;;;;22.80;14.95;;;7.40;94.20;;;;;;5075884;28;20514;-78
2021/04/20 00:39:52;;;;;;;22.38;14.98;;;7.40;94.00;;;;;;5076028;28;20077;-77
2021/04/20 00:42:18;;;;;;;20.13;13.60;;;7.40;93.80;;;;;;5076125;28;20449;-77
2021/04/20 00:44:44;;;;;;;21.70;14.07;;;7.40;94.00;;;;;;5076119;28;20389;-77
2021/04/20 00:47:10;;;;;;;21.05;14.60;;;7.40;93.80;;;;;;5075999;28;20500;-77
2021/04/20 00:49:36;;;;;;;22.77;14.05;;;7.40;93.80;;;;;;5094056;28;20043;-77
2021/04/20 00:52:02;;;;;;;22.45;14.98;;;7.30;93.70;;;;;;5076713;28;20441;-77
2021/04/20 00:54:27;;;;;;;23.98;15.60;;;7.40;93.70;;;;;;5075854;28;20063;-77
2021/04/20 00:56:53;;;;;;;23.17;15.63;;;7.30;93.70;;;;;;5094028;28;20068;-77
2021/04/20 00:59:19;;;;;;;24.02;16.50;;;7.30;93.80;;;;;;5093825;28;20115;-77
2021/04/20 01:01:46;;;;;;;26.80;17.08;;;7.30;93.90;;;;;;5075720;28;20029;-77
2021/04/20 01:04:13;;;;;;;23.70;15.88;;;7.20;94.20;;;;;;5075510;28;20122;-77
2021/04/20 01:06:43;;;;;;;23.77;14.98;;;7.20;94.00;;;;;;5094340;28;20020;-77
2021/04/20 01:09:10;;;;;;;21.27;14.00;;;7.20;94.00;;;;;;5093881;28;20028;-77
2021/04/20 01:11:37;;;;;;;29.80;19.17;;;7.10;94.00;;;;;;5093742;28;20107;-77
2021/04/20 01:14:04;;;;;;;26.15;16.85;;;7.00;95.30;;;;;;5075643;28;20436;-77
2021/04/20 01:16:30;;;;;;;25.95;17.20;;;7.00;95.00;;;;;;5075694;28;20076;-77
2021/04/20 01:18:56;;;;;;;28.02;18.90;;;6.90;95.10;;;;;;5093809;28;20437;-78
2021/04/20 01:21:23;;;;;;;24.20;17.35;;;6.90;95.90;;;;;;5094099;28;20052;-77
2021/04/20 01:24:07;;;;;;;25.85;17.77;;;6.90;95.50;;;;;;5093791;28;20470;-77
2021/04/20 01:26:40;;;;;;;29.83;18.15;;;6.90;95.90;;;;;;5093788;28;20040;-77
2021/04/20 01:29:06;;;;;;;27.75;17.70;;;6.80;96.30;;;;;;5075882;28;20029;-77
2021/04/20 01:31:33;;;;;;;24.73;15.93;;;6.80;96.10;;;;;;5075289;28;20448;-77
2021/04/20 01:34:00;;;;;;;27.95;18.83;;;6.80;95.90;;;;;;5075540;28;20078;-78
2021/04/20 01:36:27;;;;;;;28.50;18.65;;;6.80;96.10;;;;;;5075262;28;20525;-77
2021/04/20 01:38:54;;;;;;;30.67;18.88;;;6.80;96.00;;;;;;5094113;28;20500;-77
2021/04/20 01:41:21;;;;;;;31.85;20.65;;;6.90;95.90;;;;;;5075461;28;20486;-77
2021/04/20 01:43:47;;;;;;;26.35;17.77;;;6.90;96.10;;;;;;5096020;28;20066;-77
2021/04/20 01:46:15;;;;;;;30.88;19.73;;;6.90;95.80;;;;;;5097551;28;20046;-77
2021/04/20 01:48:41;;;;;;;30.42;18.88;;;6.90;95.70;;;;;;5079199;28;20032;-77
2021/04/20 01:51:07;;;;;;;35.65;20.35;;;6.90;95.80;;;;;;5079345;28;20071;-77
2021/04/20 01:53:33;;;;;;;31.95;20.17;;;6.90;96.00;;;;;;5097217;28;20399;-77
2021/04/20 01:56:05;;;;;;;29.95;19.20;;;6.90;96.10;;;;;;5079203;28;20038;-78
2021/04/20 01:58:31;;;;;;;32.33;19.67;;;6.90;95.90;;;;;;5079602;28;20485;-77
2021/04/20 02:01:00;;;;;;;31.70;20.42;;;6.90;96.00;;;;;;5078784;28;20036;-77
2021/04/20 02:03:27;;;;;;;34.78;21.15;;;6.90;96.30;;;;;;5097135;28;20369;-77
2021/04/20 02:05:57;;;;;;;32.15;19.83;;;6.90;96.10;;;;;;5079010;28;20122;-77
2021/04/20 02:08:24;;;;;;;38.45;22.38;;;6.90;96.00;;;;;;5097103;28;20054;-77
2021/04/20 02:10:51;;;;;;;32.35;21.33;;;6.90;96.10;;;;;;5096997;28;20360;-77
2021/04/20 02:13:17;;;;;;;31.85;19.42;;;7.00;95.90;;;;;;5096800;28;20089;-77
2021/04/20 02:15:43;;;;;;;34.13;22.17;;;6.90;96.00;;;;;;5096799;28;20117;-77
2021/04/20 02:18:09;;;;;;;34.08;21.63;;;6.90;96.00;;;;;;5078727;28;20025;-77
2021/04/20 02:20:37;;;;;;;34.88;22.60;;;6.90;96.10;;;;;;5096852;28;20034;-77
2021/04/20 02:23:03;;;;;;;38.90;23.48;;;6.80;96.30;;;;;;5078739;28;20032;-77
2021/04/20 02:25:30;;;;;;;40.53;23.45;;;6.80;96.40;;;;;;5096727;28;20032;-77
2021/04/20 02:27:56;;;;;;;35.72;21.45;;;6.70;96.30;;;;;;5096802;28;20047;-77
2021/04/20 02:30:24;;;;;;;32.83;19.40;;;6.70;96.30;;;;;;5078424;28;20031;-77
2021/04/20 02:32:50;;;;;;;39.60;23.05;;;6.70;96.30;;;;;;5078400;28;20024;-77
2021/04/20 02:35:17;;;;;;;38.65;22.00;;;6.70;96.70;;;;;;5078344;28;20401;-77
2021/04/20 02:37:44;;;;;;;30.08;19.50;;;6.60;96.60;;;;;;5095893;28;20102;-77
2021/04/20 02:40:17;;;;;;;35.67;21.88;;;6.60;96.60;;;;;;5116782;28;20076;-77
2021/04/20 02:42:43;;;;;;;31.70;19.52;;;6.60;96.60;;;;;;5116794;28;20050;-77
2021/04/20 02:45:10;;;;;;;34.83;22.92;;;6.60;96.30;;;;;;5098283;28;20496;-77
2021/04/20 02:47:36;;;;;;;30.20;18.67;;;6.50;96.80;;;;;;5098143;28;20039;-77
2021/04/20 02:50:06;;;;;;;29.33;19.27;;;6.60;96.40;;;;;;5098989;28;20044;-76
2021/04/20 02:52:33;;;;;;;28.27;18.38;;;6.60;96.20;;;;;;5116908;28;20047;-77
2021/04/20 02:54:59;;;;;;;25.73;17.20;;;6.60;96.20;;;;;;5116046;28;20038;-77
2021/04/20 02:57:29;;;;;;;34.78;21.55;;;6.60;96.10;;;;;;5115860;28;20103;-77
2021/04/20 02:59:55;;;;;;;28.80;18.65;;;6.60;96.20;;;;;;5116306;28;20077;-78
2021/04/20 03:02:21;;;;;;;31.85;19.70;;;6.60;96.10;;;;;;5115747;28;20024;-78
2021/04/20 03:04:50;;;;;;;30.27;18.75;;;6.60;96.10;;;;;;5115723;28;20027;-78
2021/04/20 03:07:16;;;;;;;38.72;24.30;;;6.60;96.20;;;;;;5097179;28;20040;-78
2021/04/20 03:09:42;;;;;;;35.92;21.52;;;6.50;96.80;;;;;;5098011;28;20035;-78
2021/04/20 03:12:08;;;;;;;30.55;19.65;;;6.60;96.70;;;;;;5116053;28;20088;-78
2021/04/20 03:14:36;;;;;;;32.95;20.23;;;6.60;96.50;;;;;;5115679;28;20058;-78
2021/04/20 03:17:02;;;;;;;35.47;21.95;;;6.60;96.50;;;;;;5097829;28;20500;-77
2021/04/20 03:19:27;;;;;;;34.08;20.30;;;6.60;96.70;;;;;;5097553;28;20031;-78
2021/04/20 03:21:54;;;;;;;34.03;21.33;;;6.60;96.60;;;;;;5115385;28;20054;-78
2021/04/20 03:24:31;;;;;;;31.85;19.20;;;6.60;96.70;;;;;;5097668;28;20039;-78
2021/04/20 03:26:58;;;;;;;29.83;18.80;;;6.70;96.60;;;;;;5097609;28;20036;-78
2021/04/20 03:29:24;;;;;;;33.53;21.15;;;6.70;96.40;;;;;;5097622;28;20047;-78
2021/04/20 03:31:51;;;;;;;32.90;20.48;;;6.70;96.50;;;;;;5115613;28;20106;-78
2021/04/20 03:34:21;;;;;;;30.45;19.27;;;6.80;96.70;;;;;;5097472;28;20039;-78
2021/04/20 03:37:00;;;;;;;32.42;20.60;;;6.90;96.50;;;;;;5097298;28;20043;-78
2021/04/20 03:39:27;;;;;;;32.50;20.77;;;7.00;96.50;;;;;;5097338;28;20477;-78
2021/04/20 03:42:03;;;;;;;36.17;22.13;;;7.00;96.50;;;;;;5115901;28;20040;-78
2021/04/20 03:44:51;;;;;;;32.20;19.83;;;7.10;96.60;;;;;;5115496;28;20031;-77
2021/04/20 03:47:24;;;;;;;26.05;16.92;;;7.30;96.20;;;;;;5115475;28;20046;-76
2021/04/20 03:49:53;;;;;;;34.85;21.25;;;7.30;96.00;;;;;;5115628;28;20027;-77
2021/04/20 03:52:36;;;;;;;36.53;22.75;;;7.40;96.20;;;;;;5115454;28;20495;-77
2021/04/20 03:55:03;;;;;;;31.92;21.00;;;7.40;96.30;;;;;;5096991;28;20042;-77
2021/04/20 03:57:33;;;;;;;29.58;20.02;;;7.40;96.00;;;;;;5096679;28;20076;-78
2021/04/20 04:00:01;;;;;;;35.13;22.25;;;7.50;95.90;;;;;;5096571;28;20054;-77
2021/04/20 04:02:30;;;;;;;35.38;23.17;;;7.50;95.80;;;;;;5096877;28;20501;-77
2021/04/20 04:04:58;;;;;;;41.22;25.33;;;7.50;95.80;;;;;;5115099;28;20062;-77
2021/04/20 04:07:26;;;;;;;33.40;21.95;;;7.40;96.00;;;;;;5113981;28;20104;-77
2021/04/20 04:09:53;;;;;;;34.40;20.98;;;7.40;95.90;;;;;;5114836;28;20417;-77
2021/04/20 04:12:23;;;;;;;31.92;20.25;;;7.40;95.80;;;;;;5114804;28;20031;-77
2021/04/20 04:14:49;;;;;;;28.60;18.70;;;7.40;95.80;;;;;;5114825;28;20048;-77
2021/04/20 04:17:19;;;;;;;32.75;20.15;;;7.50;95.70;;;;;;5114876;28;20054;-77
2021/04/20 04:19:47;;;;;;;34.45;20.90;;;7.50;95.80;;;;;;5096777;28;20036;-77
2021/04/20 04:22:17;;;;;;;30.08;19.65;;;7.60;95.50;;;;;;5096249;28;20076;-77
2021/04/20 04:24:51;;;;;;;36.00;22.67;;;7.70;95.30;;;;;;5096358;28;20047;-77
2021/04/20 04:27:20;;;;;;;32.67;21.90;;;7.70;95.20;;;;;;5096107;28;20038;-77
2021/04/20 04:29:47;;;;;;;32.58;19.65;;;7.60;95.20;;;;;;5096358;28;20035;-82
2021/04/20 04:32:16;;;;;;;35.00;22.08;;;7.70;95.00;;;;;;5114577;28;20031;-78
2021/04/20 04:34:44;;;;;;;29.50;18.05;;;7.60;95.20;;;;;;5096137;28;20034;-78
2021/04/20 04:37:11;;;;;;;33.53;22.15;;;7.70;95.00;;;;;;5095884;28;20473;-78
2021/04/20 04:39:37;;;;;;;34.97;22.75;;;7.60;95.10;;;;;;5114073;28;20024;-80
2021/04/20 04:42:03;;;;;;;30.30;20.95;;;7.50;95.20;;;;;;5122288;27;20092;-79
2021/04/20 04:44:29;;;;;;;33.17;21.40;;;7.60;95.30;;;;;;5083838;28;20036;-76
2021/04/20 04:46:55;;;;;;;30.33;20.52;;;7.60;95.20;;;;;;5094137;28;20028;-76
2021/04/20 04:49:22;;;;;;;35.58;21.95;;;7.60;95.30;;;;;;5092884;28;20042;-76
2021/04/20 04:51:49;;;;;;;29.13;19.33;;;7.60;95.20;;;;;;5109801;28;20028;-76
2021/04/20 04:54:17;;;;;;;27.42;18.50;;;7.70;95.20;;;;;;5095522;28;20042;-76
2021/04/20 04:56:44;;;;;;;27.67;18.50;;;7.80;95.10;;;;;;5114038;28;20062;-76
2021/04/20 04:59:13;;;;;;;27.85;18.77;;;7.90;95.30;;;;;;5114059;28;20035;-77
2021/04/20 05:01:41;;;;;;;29.52;19.60;;;8.00;94.90;;;;;;5095558;28;20031;-85
2021/04/20 05:04:09;;;;;;;31.63;18.38;;;8.10;94.60;;;;;;5096190;28;20176;-85
2021/04/20 05:06:39;;;;;;;26.90;19.20;;;8.20;94.60;;;;;;5114222;28;20092;-86
2021/04/20 05:09:10;;;;;;;28.88;18.58;;;8.30;94.20;;;;;;5095922;28;20435;-86
2021/04/20 05:11:45;;;;;;;27.92;18.85;;;8.30;94.20;;;;;;5095961;28;20130;-78
2021/04/20 05:14:13;;;;;;;27.63;19.17;;;8.40;94.10;;;;;;5114104;28;20053;-78
2021/04/20 05:16:41;;;;;;;31.92;20.95;;;8.40;94.00;;;;;;5099108;28;20111;-77
2021/04/20 05:19:09;;;;;;;30.88;19.05;;;8.40;94.10;;;;;;5119937;28;20027;-78
2021/04/20 05:21:35;;;;;;;26.58;17.98;;;8.40;94.10;;;;;;5119697;27;20043;-77
2021/04/20 05:24:01;;;;;;;26.73;18.10;;;8.40;94.00;;;;;;5118841;28;20089;-77
2021/04/20 05:26:30;;;;;;;25.40;16.77;;;8.50;93.90;;;;;;5118366;28;20477;-77
2021/04/20 05:29:04;;;;;;;29.17;19.67;;;8.60;93.70;;;;;;5100501;28;20053;-77
2021/04/20 05:31:30;;;;;;;25.58;18.25;;;8.60;93.60;;;;;;5100869;28;20032;-78
2021/04/20 05:34:01;;;;;;;27.10;18.80;;;8.60;93.40;;;;;;5100755;28;20046;-78
2021/04/20 05:36:28;;;;;;;28.05;17.80;;;8.70;93.30;;;;;;5100172;28;20459;-77
2021/04/20 05:38:56;;;;;;;24.20;17.35;;;8.70;93.40;;;;;;5100521;28;20036;-77
2021/04/20 05:41:33;;;;;;;24.65;17.70;;;8.80;93.40;;;;;;5100257;28;20034;-77
2021/04/20 05:44:01;;;;;;;28.35;20.77;;;8.80;92.80;;;;;;5117993;28;20088;-77
2021/04/20 05:46:28;;;;;;;25.40;18.40;;;8.70;93.10;;;;;;5118260;28;20032;-77
2021/04/20 05:48:55;;;;;;;28.80;21.45;;;8.80;93.30;;;;;;5099828;28;20100;-77
2021/04/20 05:51:22;;;;;;;30.88;21.45;;;8.90;93.00;;;;;;5118283;28;20035;-77
2021/04/20 05:53:50;;;;;;;25.33;19.05;;;8.90;93.00;;;;;;5100167;28;20042;-77
2021/04/20 05:56:18;;;;;;;23.92;17.27;;;9.00;92.70;;;;;;5099454;28;20462;-77
2021/04/20 05:58:45;;;;;;;24.70;18.20;;;9.10;92.70;;;;;;5099711;28;20557;-77
2021/04/20 06:01:11;;;;;;;29.65;21.83;;;9.00;92.40;;;;;;5099833;28;20080;-77
2021/04/20 06:03:40;;;;;;;23.33;16.63;;;9.10;92.40;;;;;;5099841;28;20111;-76
2021/04/20 06:06:07;;;;;;;53.67;31.75;;;9.10;92.60;;;;;;5118733;28;20031;-76
2021/04/20 06:08:37;;;;;;;28.15;19.80;;;9.20;92.40;;;;;;5119144;28;20381;-78
2021/04/20 06:11:04;;;;;;;24.75;18.40;;;9.10;92.60;;;;;;5100993;28;20028;-77
2021/04/20 06:13:30;;;;;;;22.73;16.55;;;9.20;92.50;;;;;;5118444;28;20024;-77
2021/04/20 06:15:56;;;;;;;23.35;16.75;;;9.30;92.60;;;;;;5118804;28;20672;-79
2021/04/20 06:18:23;;;;;;;21.30;15.77;;;9.40;92.10;;;;;;5119623;28;20032;-77
2021/04/20 06:20:50;;;;;;;24.48;16.58;;;9.50;92.20;;;;;;5119919;28;20020;-77
2021/04/20 06:23:16;;;;;;;26.58;19.70;;;9.60;91.80;;;;;;5119398;28;20504;-77
2021/04/20 06:25:45;;;;;;;27.10;19.52;;;9.70;91.80;;;;;;5119535;28;20031;-77
2021/04/20 06:28:14;;;;;;;39.63;28.63;;;9.80;91.90;;;;;;5101183;28;20031;-77
2021/04/20 06:30:43;;;;;;;27.58;20.40;;;9.90;91.70;;;;;;5097348;28;20038;-77
2021/04/20 06:33:10;;;;;;;25.95;20.02;;;9.90;91.70;;;;;;5116141;28;20024;-77
2021/04/20 06:35:38;;;;;;;25.42;18.30;;;10.00;91.70;;;;;;5116469;28;20033;-76
2021/04/20 06:38:05;;;;;;;23.73;16.10;;;10.10;91.50;;;;;;5116322;28;20042;-78
2021/04/20 06:40:40;;;;;;;21.45;15.32;;;10.10;91.50;;;;;;5116125;28;20035;-78
2021/04/20 06:43:11;;;;;;;21.23;15.18;;;10.20;91.30;;;;;;5116195;28;20028;-77
2021/04/20 06:45:46;;;;;;;21.23;15.77;;;10.30;91.20;;;;;;5116278;28;20107;-77
2021/04/20 06:48:51;;;;;;;22.30;16.88;;;10.30;91.10;;;;;;5097615;28;20028;-77
2021/04/20 06:51:19;;;;;;;22.30;15.93;;;10.30;90.90;;;;;;5116077;28;20030;-77
2021/04/20 06:53:53;;;;;;;21.83;15.65;;;10.20;91.20;;;;;;5097320;28;20070;-77
2021/04/20 06:56:36;;;;;;;27.08;17.38;;;10.30;91.30;;;;;;5098018;28;20032;-77
2021/04/20 06:59:29;;;;;;;23.55;17.10;;;10.30;91.10;;;;;;5115661;28;20042;-77
2021/04/20 07:02:19;;;;;;;23.55;17.92;;;10.40;91.20;;;;;;5097430;28;20122;-77
2021/04/20 07:04:55;;;;;;;82.10;59.75;;;10.50;90.80;;;;;;5068060;28;20036;-79
2021/04/20 07:07:43;;;;;;;26.25;20.63;;;10.60;90.80;;;;;;5115625;28;20031;-79
2021/04/20 07:10:24;;;;;;;23.92;16.85;;;10.70;90.60;;;;;;5097237;28;20020;-78
2021/04/20 07:12:56;;;;;;;20.52;14.10;;;10.70;90.40;;;;;;5115484;28;20103;-78
2021/04/20 07:15:25;;;;;;;18.83;13.75;;;10.80;90.40;;;;;;5114830;28;20107;-77
2021/04/20 07:18:06;;;;;;;23.02;17.88;;;10.90;90.20;;;;;;5115352;28;20026;-77
2021/04/20 07:20:57;;;;;;;19.80;15.57;;;11.00;89.50;;;;;;5097249;28;20035;-77
2021/04/20 07:24:07;;;;;;;18.17;13.52;;;11.10;90.10;;;;;;5115780;28;20039;-77
2021/04/20 07:26:53;;;;;;;17.63;13.23;;;11.40;89.20;;;;;;5089342;28;20059;-78
2021/04/20 07:29:28;;;;;;;20.35;13.80;;;11.60;88.00;;;;;;5115668;28;20049;-78
2021/04/20 07:32:15;;;;;;;18.85;15.38;;;11.80;88.40;;;;;;5097502;28;20028;-78
2021/04/20 07:34:50;;;;;;;19.60;15.57;;;11.90;87.80;;;;;;5097549;28;20039;-78
2021/04/20 07:37:38;;;;;;;18.13;14.20;;;11.90;86.80;;;;;;5115358;28;20047;-78
2021/04/20 07:40:37;;;;;;;20.77;17.27;;;11.90;85.80;;;;;;5097223;28;20027;-79
2021/04/20 07:43:13;;;;;;;30.60;19.70;;;12.00;87.70;;;;;;5115597;28;20435;-77
2021/04/20 07:46:02;;;;;;;23.75;15.73;;;12.00;85.60;;;;;;5115603;28;20466;-77
2021/04/20 07:48:55;;;;;;;18.95;13.35;;;12.10;85.70;;;;;;5115341;28;20024;-77
2021/04/20 07:52:00;;;;;;;32.35;17.77;;;12.10;85.40;;;;;;5115444;28;20028;-77
2021/04/20 07:55:03;;;;;;;20.10;12.25;;;12.30;84.50;;;;;;5031754;28;20042;-77
2021/04/20 07:57:36;;;;;;;15.07;11.93;;;12.30;83.80;;;;;;5096920;28;20079;-77
2021/04/20 08:00:13;;;;;;;12.90;10.73;;;12.40;83.80;;;;;;5096694;28;20066;-76
2021/04/20 08:02:50;;;;;;;16.08;10.93;;;12.50;83.10;;;;;;5096862;28;20473;-77
2021/04/20 08:05:27;;;;;;;13.95;10.35;;;12.70;83.20;;;;;;5096935;28;20036;-77
2021/04/20 08:08:12;;;;;;;15.25;10.95;;;12.70;82.50;;;;;;5096664;28;20093;-78
2021/04/20 08:10:50;;;;;;;14.07;9.75;;;12.80;81.90;;;;;;5096747;28;20024;-79
2021/04/20 08:13:31;;;;;;;15.23;11.80;;;13.00;81.40;;;;;;5096776;28;20431;-77
2021/04/20 08:16:01;;;;;;;17.15;12.80;;;12.90;80.20;;;;;;5114864;28;20034;-77
2021/04/20 08:18:59;;;;;;;13.85;11.95;;;12.90;81.00;;;;;;5096585;28;20066;-77
2021/04/20 08:21:27;;;;;;;15.05;11.80;;;13.00;79.20;;;;;;5080609;28;20027;-77
2021/04/20 08:23:55;;;;;;;30.95;23.58;;;13.20;79.10;;;;;;5114757;28;20139;-78
2021/04/20 08:26:32;;;;;;;12.82;10.80;;;13.20;79.10;;;;;;5096659;28;20066;-77
2021/04/20 08:29:08;;;;;;;21.55;19.27;;;13.40;79.00;;;;;;5114607;28;20035;-77
2021/04/20 08:31:42;;;;;;;15.05;13.43;;;13.40;77.40;;;;;;5114693;28;20500;-78
2021/04/20 08:34:37;;;;;;;11.23;10.02;;;13.40;77.70;;;;;;5114809;28;20516;-78
2021/04/20 08:37:06;;;;;;;11.50;8.15;;;13.50;78.00;;;;;;5114378;28;20050;-77
2021/04/20 08:39:41;;;;;;;10.40;9.35;;;13.40;76.40;;;;;;5096225;28;20438;-77
2021/04/20 08:42:37;;;;;;;8.65;7.75;;;13.40;75.80;;;;;;5114372;28;20058;-77
2021/04/20 08:45:44;;;;;;;10.50;9.40;;;13.40;75.60;;;;;;5096049;28;20036;-78
2021/04/20 08:48:49;;;;;;;10.25;9.10;;;13.50;75.80;;;;;;4995620;28;20033;-77
2021/04/20 08:51:28;;;;;;;13.02;9.50;;;13.50;74.40;;;;;;5096116;28;20035;-77
2021/04/20 08:54:07;;;;;;;10.48;8.15;;;13.60;73.20;;;;;;5095618;28;20031;-78
2021/04/20 08:56:43;;;;;;;13.52;9.82;;;13.70;74.30;;;;;;5114328;28;20531;-77
2021/04/20 08:59:21;;;;;;;8.02;6.78;;;13.90;73.30;;;;;;5114293;28;20024;-77
2021/04/20 09:02:10;;;;;;;9.93;8.93;;;13.70;71.70;;;;;;5096107;28;20519;-78
2021/04/20 09:05:03;;;;;;;11.20;10.10;;;13.90;70.90;;;;;;5114197;28;20038;-78
2021/04/20 09:07:41;;;;;;;13.23;9.63;;;13.90;70.30;;;;;;5095826;28;20024;-78
2021/04/20 09:10:38;;;;;;;11.82;10.57;;;13.90;70.80;;;;;;5095827;28;20047;-78
2021/04/20 09:13:12;;;;;;;6.35;5.70;;;14.00;70.10;;;;;;5112608;28;20082;-77
2021/04/20 09:15:44;;;;;;;6.68;5.97;;;14.10;69.40;;;;;;5095432;28;20393;-78
2021/04/20 09:18:16;;;;;;;11.75;9.60;;;14.30;68.80;;;;;;5095410;28;20474;-77
2021/04/20 09:21:01;;;;;;;28.55;21.00;;;14.40;65.90;;;;;;5113531;28;20077;-78
2021/04/20 09:23:49;;;;;;;14.10;10.25;;;14.40;66.50;;;;;;5095283;28;20143;-78
2021/04/20 09:26:32;;;;;;;24.70;17.98;;;14.50;64.30;;;;;;5095144;28;20478;-77
2021/04/20 09:29:09;;;;;;;6.82;6.13;;;14.20;66.00;;;;;;5113499;28;20529;-77
2021/04/20 09:31:40;;;;;;;5.57;4.53;;;14.50;66.90;;;;;;5095355;28;20182;-77
2021/04/20 09:34:08;;;;;;;11.10;9.07;;;14.40;67.40;;;;;;5113295;28;20034;-78
2021/04/20 09:36:34;;;;;;;49.42;31.83;;;14.60;67.70;;;;;;5094982;28;20509;-77
2021/04/20 09:39:03;;;;;;;7.32;6.03;;;14.80;67.70;;;;;;5094767;28;20036;-78
2021/04/20 09:41:56;;;;;;;6.70;5.70;;;14.90;67.70;;;;;;5094701;28;20028;-78
2021/04/20 09:44:32;;;;;;;8.55;7.05;;;15.10;66.80;;;;;;5109971;28;20059;-78
2021/04/20 09:47:23;;;;;;;12.57;9.13;;;15.00;67.60;;;;;;5113816;28;20036;-78
2021/04/20 09:49:48;;;;;;;;;;;15.10;66.70;;;;;;5113861;28;20115;-78
2021/04/20 09:52:22;;;;;;;21.63;15.23;;;14.90;66.20;;;;;;5095028;28;19986;-76
2021/04/20 09:55:06;;;;;;;10.40;7.90;;;14.90;67.20;;;;;;5095020;28;20032;-78
2021/04/20 09:57:36;;;;;;;7.28;6.10;;;15.10;67.80;;;;;;5095112;28;20085;-77
2021/04/20 10:00:06;;;;;;;7.70;6.32;;;15.00;67.70;;;;;;5113319;28;20024;-77
2021/04/20 10:02:34;;;;;;;;;;;15.10;68.50;;;;;;5113796;28;20047;-76
2021/04/20 10:05:33;;;;;;;8.77;6.65;;;15.20;67.20;;;;;;5096012;28;19911;-78
2021/04/20 10:08:24;;;;;;;10.80;7.60;;;15.30;66.40;;;;;;5116905;28;20039;-79
2021/04/20 10:11:09;;;;;;;11.27;8.38;;;15.30;67.10;;;;;;5116109;28;20054;-77
2021/04/20 10:13:59;;;;;;;9.35;6.85;;;15.30;66.90;;;;;;5117131;28;20030;-78
2021/04/20 10:16:59;;;;;;;11.95;8.23;;;15.20;64.10;;;;;;5117678;28;20043;-78
2021/04/20 10:19:37;;;;;;;11.70;8.70;;;15.20;66.50;;;;;;5117267;28;20485;-77
2021/04/20 10:22:40;;;;;;;10.30;8.00;;;15.20;65.60;;;;;;5098858;28;20032;-76
2021/04/20 10:25:12;;;;;;;9.68;6.45;;;15.20;65.80;;;;;;5117125;28;20041;-77
2021/04/20 10:27:40;;;;;;;7.32;6.25;;;15.10;65.10;;;;;;5098896;28;20027;-77
2021/04/20 10:30:19;;;;;;;10.95;6.55;;;15.10;65.50;;;;;;5098716;28;20031;-78
2021/04/20 10:32:50;;;;;;;17.33;10.25;;;15.10;66.30;;;;;;5098648;28;20112;-77
2021/04/20 10:35:21;;;;;;;20.33;12.32;;;15.20;66.10;;;;;;5098722;28;20040;-78
2021/04/20 10:37:53;;;;;;;15.45;9.20;;;15.20;65.20;;;;;;5095005;28;20052;-77
2021/04/20 10:40:29;;;;;;;7.72;5.68;;;15.30;65.50;;;;;;5095198;28;20551;-77
2021/04/20 10:42:55;;;;;;;28.02;15.68;;;15.30;65.40;;;;;;5095172;28;20397;-78
2021/04/20 10:45:26;;;;;;;10.30;7.15;;;15.40;64.20;;;;;;5096255;28;20501;-77
2021/04/20 10:47:53;;;;;;;25.02;12.85;;;15.60;64.40;;;;;;5096275;28;20105;-78
2021/04/20 10:50:24;;;;;;;15.27;9.90;;;15.60;64.60;;;;;;5096225;28;20032;-77
2021/04/20 10:53:18;;;;;;;11.45;6.05;;;15.80;64.30;;;;;;5096123;28;20821;-77
2021/04/20 10:55:55;;;;;;;9.60;7.68;;;15.70;62.50;;;;;;5058626;28;20063;-75
2021/04/20 10:58:24;;;;;;;13.07;8.50;;;15.40;65.20;;;;;;5094595;28;20040;-76
2021/04/20 11:00:54;;;;;;;12.77;9.23;;;15.30;66.70;;;;;;5095799;28;20081;-77
2021/04/20 11:03:26;;;;;;;12.63;7.80;;;15.10;67.10;;;;;;5105539;28;20046;-77
2021/04/20 11:05:52;;;;;;;13.05;9.88;;;15.10;68.80;;;;;;5109799;28;20035;-76
2021/04/20 11:08:38;;;;;;;13.93;8.57;;;15.10;69.40;;;;;;5097837;28;20039;-77
2021/04/20 11:11:05;;;;;;;23.13;13.40;;;15.10;70.90;;;;;;5115975;28;20031;-76
2021/04/20 11:13:38;;;;;;;50.60;25.63;;;15.10;70.80;;;;;;5115987;28;20594;-76
2021/04/20 11:16:11;;;;;;;30.08;17.30;;;15.00;71.30;;;;;;5115568;28;20073;-77
2021/04/20 11:18:47;;;;;;;24.10;13.65;;;14.90;71.60;;;;;;5097563;28;20042;-76
2021/04/20 11:21:20;;;;;;;11.95;9.07;;;15.00;72.20;;;;;;5116152;28;20039;-76
2021/04/20 11:23:56;;;;;;;18.90;12.82;;;14.70;74.10;;;;;;5115833;28;20027;-77
2021/04/20 11:26:29;;;;;;;16.23;11.65;;;14.70;74.60;;;;;;5097607;28;20040;-76
2021/04/20 11:28:59;;;;;;;14.65;11.23;;;14.60;74.70;;;;;;5116387;28;20369;-76
2021/04/20 11:31:28;;;;;;;;;;;14.40;75.40;;;;;;5116351;28;20035;-77
2021/04/20 11:34:09;;;;;;;18.48;11.52;;;14.30;75.30;;;;;;5097516;28;19918;-76
2021/04/20 11:36:40;;;;;;;11.60;9.57;;;14.30;74.90;;;;;;5097186;28;20056;-77
2021/04/20 11:39:09;;;;;;;13.98;10.38;;;14.30;75.10;;;;;;5115612;28;20028;-76
2021/04/20 11:41:42;;;;;;;16.73;11.48;;;14.30;74.40;;;;;;5115646;28;20027;-77
2021/04/20 11:44:09;;;;;;;12.57;9.35;;;14.20;74.70;;;;;;5097282;28;20028;-76
2021/04/20 11:46:37;;;;;;;21.20;13.68;;;14.10;75.20;;;;;;5115732;28;20470;-77
2021/04/20 11:49:14;;;;;;;10.80;9.70;;;14.00;75.90;;;;;;5097138;28;20040;-76
2021/04/20 11:51:42;;;;;;;15.32;11.45;;;14.00;74.60;;;;;;5097101;28;20389;-76
2021/04/20 11:54:17;;;;;;;12.85;9.35;;;14.00;75.10;;;;;;5097009;28;20032;-77
2021/04/20 11:56:44;;;;;;;17.23;11.13;;;14.00;75.40;;;;;;5097222;28;20028;-76
2021/04/20 11:59:10;;;;;;;11.32;9.15;;;14.00;76.20;;;;;;5097346;28;20028;-77
2021/04/20 12:01:37;;;;;;;18.77;12.95;;;14.20;77.00;;;;;;5096959;28;20042;-76
2021/04/20 12:04:05;;;;;;;23.83;14.38;;;14.30;77.30;;;;;;5097039;28;20034;-78
2021/04/20 12:06:48;;;;;;;20.15;14.05;;;14.40;77.60;;;;;;5115177;28;20066;-77
2021/04/20 12:09:24;;;;;;;63.97;26.83;;;14.40;77.90;;;;;;5114956;28;20032;-77
2021/04/20 12:11:51;;;;;;;15.88;12.10;;;14.60;77.10;;;;;;5114873;28;20669;-76
2021/04/20 12:14:22;;;;;;;24.83;15.55;;;14.80;76.30;;;;;;5114999;28;20110;-77
2021/04/20 12:16:49;;;;;;;18.95;12.25;;;14.70;76.50;;;;;;5096746;28;20028;-77
2021/04/20 12:19:21;;;;;;;22.85;13.40;;;14.70;76.30;;;;;;5096575;28;20477;-77
2021/04/20 12:21:51;;;;;;;19.48;10.98;;;14.70;75.90;;;;;;5096979;28;20130;-77
2021/04/20 12:24:20;;;;;;;23.70;14.13;;;14.80;75.40;;;;;;5114908;28;20032;-77
2021/04/20 12:26:53;;;;;;;13.57;9.88;;;14.90;75.10;;;;;;5096238;28;20396;-77
2021/04/20 12:29:21;;;;;;;17.45;13.15;;;14.90;75.90;;;;;;5096016;28;20088;-77
2021/04/20 12:31:47;;;;;;;12.20;9.82;;;15.00;75.90;;;;;;5114648;28;20034;-77
2021/04/20 12:34:13;;;;;;;13.52;9.70;;;15.20;75.80;;;;;;5114598;28;20036;-77
2021/04/20 12:36:47;;;;;;;15.77;11.02;;;15.30;75.30;;;;;;5096228;28;20512;-76
2021/04/20 12:39:24;;;;;;;12.15;10.40;;;15.40;74.90;;;;;;5114425;28;20039;-75
2021/04/20 12:41:51;;;;;;;11.48;9.77;;;15.50;73.70;;;;;;5114781;28;20424;-77
2021/04/20 12:44:21;;;;;;;13.20;9.82;;;15.60;72.80;;;;;;5114338;28;20035;-75
2021/04/20 12:46:47;;;;;;;13.15;10.80;;;15.80;71.70;;;;;;5114314;28;20030;-76
2021/04/20 12:49:15;;;;;;;13.45;10.00;;;15.90;71.40;;;;;;5114542;28;20039;-76
2021/04/20 12:51:42;;;;;;;13.70;9.30;;;15.90;71.00;;;;;;5114302;28;20031;-77
2021/04/20 12:54:10;;;;;;;11.55;9.80;;;15.80;70.40;;;;;;5114211;28;20107;-76
2021/04/20 12:56:39;;;;;;;11.23;9.40;;;15.40;71.90;;;;;;5114078;28;20033;-77
2021/04/20 12:59:16;;;;;;;13.38;10.73;;;15.70;71.70;;;;;;5112977;28;20024;-76
2021/04/20 13:01:46;;;;;;;12.75;10.00;;;15.60;71.50;;;;;;5111234;28;20044;-77